Disclaimer

Please do not use the information listed here in-flight or in-navigation, as they are not provided to us by the airports but are provided by volunteers, so they might be outdated.

Search


Regions


Airport information page

No radio frequency information is available.

Airport informations:
Latitude: 15° 51' 40.84" S
Longitude: 052° 23' 20.02" W
Elevation: 1147 feet - 350 meters
Operating hours: From sunrise to sunset (SR-SS)
Operating agency: Civil government, landing fees and diplomatic clearance may be required
Timezone: UTC-4(-3DT)
Fuel: Jet A1, without icing nhibitor.

100/130 octane gasoline, leaded, MIL-L-5572F (GREEN)

Runway information:
07/25 - 5243 x 98 feet< - >1598 x 30 meters

Recent METARs:
SBBW 192000Z 01012KT 9999 TS VCSH FEW020 FEW025CB BKN100 29/19 Q1012
SBBW 192000Z 01012KT 9999 TS VCSH FEW020 FEW025CB BKN100 29/19 Q1012
SBBW 192000Z 01012KT 9999 TS VCSH FEW020 FEW025CB BKN100 29/19 Q1012

Airport on the map: